Time;durP1;ratioP1;P1;durP2;ratioP2;P2;SDS_P1;SDS_P2;PMS_P1;PMS_P2;Temp;Humidity;BMP_temperature;BMP_pressure;BME280_temperature;BME280_humidity;BME280_pressure;Samples;Min_cycle;Max_cycle;Signal;HPM_P1;HPM_P2
2023/09/08 00:02:17;;;;;;;11.40;6.97;;;;;;;16.38;100.00;101543.47;5033334;28;20426;-86
2023/09/08 00:04:45;;;;;;;13.32;7.50;;;;;;;16.32;100.00;101551.81;5032121;28;20785;-87
2023/09/08 00:07:13;;;;;;;13.33;7.13;;;;;;;16.32;100.00;101549.06;5032969;28;21063;-88
2023/09/08 00:09:48;;;;;;;12.95;7.32;;;;;;;16.33;100.00;101553.44;5035540;28;20489;-86
2023/09/08 00:12:16;;;;;;;9.93;6.75;;;;;;;16.30;100.00;101544.97;5034484;28;20435;-86
2023/09/08 00:14:44;;;;;;;12.47;7.43;;;;;;;16.33;100.00;101539.69;5033938;28;20427;-86
2023/09/08 00:17:17;;;;;;;10.95;7.10;;;;;;;16.30;100.00;101545.78;5029639;28;20851;-86
2023/09/08 00:19:45;;;;;;;11.00;7.40;;;;;;;16.26;100.00;101539.25;5033132;28;20418;-87
2023/09/08 00:22:18;;;;;;;11.52;7.53;;;;;;;16.20;100.00;101545.13;5032095;28;20479;-86
2023/09/08 00:24:53;;;;;;;11.15;7.35;;;;;;;16.21;100.00;101542.06;5050064;28;20419;-86
2023/09/08 00:27:26;;;;;;;11.43;7.38;;;;;;;16.22;100.00;101543.72;5028092;28;20959;-86
2023/09/08 00:30:01;;;;;;;13.35;7.78;;;;;;;16.17;100.00;101549.25;5033615;28;20422;-86
2023/09/08 00:32:34;;;;;;;11.50;7.75;;;;;;;16.15;100.00;101540.53;5031361;28;20441;-86
2023/09/08 00:35:08;;;;;;;12.35;7.75;;;;;;;16.14;100.00;101542.47;5033196;28;20449;-86
2023/09/08 00:37:37;;;;;;;11.27;7.38;;;;;;;16.14;100.00;101549.88;5032835;28;20430;-85
2023/09/08 00:40:08;;;;;;;11.38;7.72;;;;;;;16.10;100.00;101546.91;5033426;28;20427;-86
2023/09/08 00:42:41;;;;;;;11.55;7.35;;;;;;;16.07;100.00;101542.00;5033639;28;20438;-86
2023/09/08 00:45:14;;;;;;;13.57;7.80;;;;;;;16.05;100.00;101551.66;5033522;28;20438;-86
2023/09/08 00:47:48;;;;;;;12.70;7.82;;;;;;;16.05;100.00;101540.69;5031817;28;20426;-86
2023/09/08 00:50:16;;;;;;;14.20;7.57;;;;;;;16.06;100.00;101543.13;5049806;28;20445;-86
2023/09/08 00:52:50;;;;;;;10.75;7.57;;;;;;;16.04;100.00;101542.59;5033917;28;20430;-86
2023/09/08 00:55:20;;;;;;;13.00;8.00;;;;;;;16.02;100.00;101539.34;5033833;28;20403;-87
2023/09/08 00:57:53;;;;;;;16.08;8.05;;;;;;;16.04;100.00;101539.03;5028805;28;20449;-87
2023/09/08 01:00:26;;;;;;;11.45;7.60;;;;;;;15.97;100.00;101540.22;5028929;28;20423;-86
2023/09/08 01:03:01;;;;;;;12.63;8.27;;;;;;;15.96;100.00;101537.75;5029134;28;20419;-86
2023/09/08 01:05:29;;;;;;;16.60;8.35;;;;;;;15.92;100.00;101531.22;5045579;28;20922;-86
2023/09/08 01:08:03;;;;;;;13.13;7.80;;;;;;;15.89;100.00;101534.56;5029121;28;20439;-86
2023/09/08 01:10:37;;;;;;;13.98;7.72;;;;;;;15.86;100.00;101530.47;5031751;28;20449;-86
2023/09/08 01:13:11;;;;;;;12.30;8.27;;;;;;;15.79;100.00;101527.25;5029107;28;20423;-87
2023/09/08 01:15:39;;;;;;;13.53;7.97;;;;;;;15.77;100.00;101527.56;5030426;28;20431;-85
2023/09/08 01:18:07;;;;;;;13.35;8.10;;;;;;;15.72;100.00;101530.34;5026606;28;20458;-86
2023/09/08 01:20:49;;;;;;;20.35;8.50;;;;;;;15.72;100.00;101526.81;5030085;28;20434;-86
2023/09/08 01:23:25;;;;;;;14.02;8.18;;;;;;;15.69;100.00;101522.72;5028284;28;20423;-86
2023/09/08 01:25:59;;;;;;;13.13;8.15;;;;;;;15.71;100.00;101522.44;5029241;28;20502;-86
2023/09/08 01:28:33;;;;;;;13.45;8.15;;;;;;;15.69;100.00;101519.97;5029140;28;20423;-86
2023/09/08 01:31:01;;;;;;;13.60;7.75;;;;;;;15.66;100.00;101517.81;5041531;28;20423;-86
2023/09/08 01:33:35;;;;;;;12.00;7.97;;;;;;;15.66;100.00;101515.09;5028206;28;20423;-86
2023/09/08 01:36:09;;;;;;;13.73;8.30;;;;;;;15.63;100.00;101515.66;5029879;28;20435;-84
2023/09/08 01:38:37;;;;;;;12.45;8.30;;;;;;;15.60;100.00;101517.03;5028844;28;20416;-86
2023/09/08 01:41:11;;;;;;;14.10;8.40;;;;;;;15.58;100.00;101518.47;5029662;28;20415;-87
2023/09/08 01:43:44;;;;;;;13.30;8.27;;;;;;;15.53;100.00;101513.84;5027681;28;20460;-86
2023/09/08 01:46:18;;;;;;;13.05;8.25;;;;;;;15.51;100.00;101510.59;5030494;28;20431;-85
2023/09/08 01:48:46;;;;;;;14.32;8.52;;;;;;;15.50;100.00;101517.19;5028982;28;20415;-86
2023/09/08 01:51:19;;;;;;;13.38;8.88;;;;;;;15.48;100.00;101506.50;5043407;28;21385;-86
2023/09/08 01:53:47;;;;;;;12.13;8.45;;;;;;;15.45;100.00;101504.34;5028378;28;20423;-86
2023/09/08 01:56:22;;;;;;;11.20;8.27;;;;;;;15.41;100.00;101508.78;5028114;28;20899;-86
2023/09/08 01:58:57;;;;;;;14.52;8.65;;;;;;;15.38;100.00;101501.13;5028611;28;20419;-85
2023/09/08 02:01:25;;;;;;;12.60;8.45;;;;;;;15.36;100.00;101489.66;5044250;28;20431;-86
2023/09/08 02:03:58;;;;;;;13.82;8.88;;;;;;;15.34;100.00;101491.03;5029398;28;20427;-85
2023/09/08 02:06:31;;;;;;;14.00;8.60;;;;;;;15.33;100.00;101492.97;5044083;28;20434;-85
2023/09/08 02:09:05;;;;;;;13.73;8.57;;;;;;;15.28;100.00;101488.34;5027689;28;20415;-86
2023/09/08 02:11:34;;;;;;;12.57;8.88;;;;;;;15.25;100.00;101494.44;5027563;28;20431;-86
2023/09/08 02:14:08;;;;;;;14.02;8.60;;;;;;;15.20;100.00;101483.50;5027861;28;20431;-86
2023/09/08 02:16:37;;;;;;;13.90;9.10;;;;;;;15.19;100.00;101486.56;5028647;28;20423;-85
2023/09/08 02:19:10;;;;;;;15.15;8.75;;;;;;;15.16;100.00;101484.41;5029531;28;20426;-86
2023/09/08 02:21:43;;;;;;;14.73;8.70;;;;;;;15.17;100.00;101483.28;5025288;28;20448;-87
2023/09/08 02:24:17;;;;;;;13.95;8.85;;;;;;;15.17;100.00;101484.09;5029144;28;20430;-87
2023/09/08 02:26:51;;;;;;;13.40;8.77;;;;;;;15.18;100.00;101483.00;5029686;28;21007;-86
2023/09/08 02:29:25;;;;;;;13.68;9.05;;;;;;;15.17;100.00;101488.78;5026734;28;20423;-85
2023/09/08 02:31:53;;;;;;;12.55;8.80;;;;;;;15.16;100.00;101485.19;5039759;28;20454;-86
2023/09/08 02:34:22;;;;;;;13.10;8.60;;;;;;;15.16;100.00;101487.94;5027653;28;20767;-85
2023/09/08 02:36:50;;;;;;;13.20;8.75;;;;;;;15.14;100.00;101488.25;5028085;28;20454;-86
2023/09/08 02:39:26;;;;;;;14.95;9.30;;;;;;;15.10;100.00;101489.94;5044562;28;20418;-86
2023/09/08 02:42:02;;;;;;;13.02;8.85;;;;;;;15.11;100.00;101483.34;5023205;28;20424;-86
2023/09/08 02:44:30;;;;;;;14.43;9.30;;;;;;;15.05;100.00;101489.16;5030031;28;20407;-85
2023/09/08 02:47:06;;;;;;;14.32;9.40;;;;;;;15.00;100.00;101484.56;5026405;28;20441;-85
2023/09/08 02:49:40;;;;;;;13.57;9.43;;;;;;;15.01;100.00;101485.38;5027618;28;20489;-85
2023/09/08 02:52:09;;;;;;;15.10;9.60;;;;;;;15.03;100.00;101485.91;5027516;28;20431;-85
2023/09/08 02:54:42;;;;;;;14.25;9.55;;;;;;;15.01;100.00;101483.47;5026569;28;20453;-84
2023/09/08 02:57:12;;;;;;;14.30;9.80;;;;;;;14.99;100.00;101482.13;5027013;28;20446;-86
2023/09/08 02:59:50;;;;;;;14.98;9.73;;;;;;;14.96;100.00;101473.34;5025013;28;20415;-85
2023/09/08 03:02:25;;;;;;;15.30;10.00;;;;;;;14.98;100.00;101475.00;5027284;28;20435;-85
2023/09/08 03:04:58;;;;;;;14.70;9.70;;;;;;;15.00;100.00;101478.25;5042145;28;20423;-84
2023/09/08 03:07:33;;;;;;;15.00;9.70;;;;;;;15.01;100.00;101477.16;5035111;28;20502;-84
2023/09/08 03:10:01;;;;;;;13.60;9.35;;;;;;;14.98;100.00;101473.06;5029505;28;20403;-86
2023/09/08 03:12:36;;;;;;;13.18;9.57;;;;;;;14.97;100.00;101479.66;5026554;28;20811;-86
2023/09/08 03:15:05;;;;;;;14.77;9.13;;;;;;;14.95;100.00;101477.19;5028771;28;20419;-86
2023/09/08 03:17:33;;;;;;;13.60;9.50;;;;;;;14.93;100.00;101475.88;5027346;28;20446;-85
2023/09/08 03:20:08;;;;;;;13.43;9.32;;;;;;;14.88;100.00;101484.94;5025067;28;20431;-86
2023/09/08 03:22:41;;;;;;;14.40;9.68;;;;;;;14.86;100.00;101478.94;5026072;28;20434;-84
2023/09/08 03:25:15;;;;;;;13.68;9.48;;;;;;;14.85;100.00;101471.84;5029139;28;20422;-86
2023/09/08 03:27:45;;;;;;;14.57;9.15;;;;;;;14.78;100.00;101477.66;5027381;28;20449;-85
2023/09/08 03:30:14;;;;;;;13.80;9.40;;;;;;;14.88;100.00;101478.66;5028722;28;20419;-85
2023/09/08 03:32:47;;;;;;;15.68;10.05;;;;;;;14.84;100.00;101472.94;5027081;28;20427;-85
2023/09/08 03:35:15;;;;;;;15.50;9.63;;;;;;;14.86;100.00;101475.38;5027347;28;20445;-86
2023/09/08 03:37:49;;;;;;;15.52;10.13;;;;;;;14.85;100.00;101476.50;5029202;28;20422;-84
2023/09/08 03:40:22;;;;;;;16.40;10.55;;;;;;;14.81;100.00;101476.25;5044239;28;20839;-85
2023/09/08 03:42:52;;;;;;;13.57;10.00;;;;;;;14.77;100.00;101469.72;5026765;28;20423;-85
2023/09/08 03:45:25;;;;;;;15.60;10.30;;;;;;;14.74;100.00;101464.81;5044133;28;20419;-85
2023/09/08 03:47:58;;;;;;;15.43;10.43;;;;;;;14.77;100.00;101466.97;5028714;28;21310;-86
2023/09/08 03:50:32;;;;;;;16.38;10.15;;;;;;;14.73;100.00;101476.88;5024777;28;20424;-85
2023/09/08 03:53:05;;;;;;;17.33;10.60;;;;;;;14.68;100.00;101468.69;5028911;28;20414;-86
2023/09/08 03:55:34;;;;;;;17.10;10.32;;;;;;;14.73;100.00;101468.66;5027884;28;20442;-86
2023/09/08 03:58:08;;;;;;;18.30;10.50;;;;;;;14.72;100.00;101467.00;5028920;28;20407;-86
2023/09/08 04:00:37;;;;;;;16.20;10.00;;;;;;;14.68;100.00;101471.44;5026707;28;20430;-85
2023/09/08 04:03:05;;;;;;;20.27;11.03;;;;;;;14.66;100.00;101473.66;5023403;28;21255;-85
2023/09/08 04:05:39;;;;;;;16.35;10.25;;;;;;;14.62;100.00;101467.91;5044147;28;20427;-85
2023/09/08 04:08:12;;;;;;;16.38;10.65;;;;;;;14.59;100.00;101469.28;5028584;28;20419;-85
2023/09/08 04:10:45;;;;;;;16.92;10.60;;;;;;;14.57;100.00;101471.50;5026820;28;20435;-85
2023/09/08 04:13:19;;;;;;;21.00;11.25;;;;;;;14.54;100.00;101471.25;5022974;28;20411;-86
2023/09/08 04:15:53;;;;;;;16.48;10.80;;;;;;;14.54;100.00;101465.78;5026650;28;20426;-86
2023/09/08 04:18:27;;;;;;;15.90;10.65;;;;;;;14.50;100.00;101453.75;5025077;28;20451;-86
2023/09/08 04:21:00;;;;;;;19.05;11.13;;;;;;;14.45;100.00;101457.38;5025929;28;21051;-85
2023/09/08 04:23:33;;;;;;;13.97;10.43;;;;;;;14.40;100.00;101462.88;5026755;28;20427;-85
2023/09/08 04:26:06;;;;;;;15.45;10.60;;;;;;;14.38;100.00;101454.97;5042957;28;20426;-84
2023/09/08 04:28:36;;;;;;;16.40;10.63;;;;;;;14.40;100.00;101455.50;5025816;28;20892;-86
2023/09/08 04:31:04;;;;;;;15.13;10.07;;;;;;;14.43;100.00;101451.34;5027056;28;20419;-86
2023/09/08 04:33:37;;;;;;;15.30;10.82;;;;;;;14.38;100.00;101456.91;5046418;28;20442;-84
2023/09/08 04:36:13;;;;;;;14.82;10.38;;;;;;;14.36;100.00;101448.97;5047691;28;20427;-85
2023/09/08 04:38:46;;;;;;;16.07;10.80;;;;;;;14.33;100.00;101452.25;5029166;28;20457;-85
2023/09/08 04:41:14;;;;;;;15.95;10.70;;;;;;;14.36;100.00;101451.72;5030194;28;20426;-85
2023/09/08 04:43:49;;;;;;;14.53;10.70;;;;;;;14.33;100.00;101449.53;5045933;28;20423;-86
2023/09/08 04:46:22;;;;;;;15.63;10.88;;;;;;;14.30;100.00;101447.38;5029248;28;20434;-85
2023/09/08 04:48:55;;;;;;;15.33;10.50;;;;;;;14.27;100.00;101442.47;5027924;28;20430;-86
2023/09/08 04:51:29;;;;;;;14.15;10.45;;;;;;;14.25;100.00;101441.91;5030093;28;20429;-85
2023/09/08 04:53:57;;;;;;;14.60;10.73;;;;;;;14.20;100.00;101441.97;5029064;28;20430;-86
2023/09/08 04:56:30;;;;;;;16.83;10.75;;;;;;;14.17;100.00;101435.16;5031863;28;20434;-85
2023/09/08 04:59:05;;;;;;;16.05;10.65;;;;;;;14.18;100.00;101436.75;5028648;28;20431;-85
2023/09/08 05:01:39;;;;;;;14.75;10.75;;;;;;;14.22;100.00;101437.03;5019990;28;20438;-86
2023/09/08 05:04:13;;;;;;;16.60;11.48;;;;;;;14.27;100.00;101439.72;5025371;28;20434;-86
2023/09/08 05:06:46;;;;;;;16.70;11.40;;;;;;;14.33;100.00;101443.25;5030434;28;20411;-86
2023/09/08 05:09:22;;;;;;;16.05;11.20;;;;;;;14.32;100.00;101436.97;5027959;28;20434;-85
2023/09/08 05:11:55;;;;;;;17.45;11.25;;;;;;;14.38;100.00;101444.00;5028371;28;20411;-85
2023/09/08 05:14:30;;;;;;;16.55;10.73;;;;;;;14.42;100.00;101447.00;5026652;28;20453;-86
2023/09/08 05:17:02;;;;;;;15.65;11.35;;;;;;;14.43;100.00;101440.41;5029076;28;21200;-86
2023/09/08 05:19:35;;;;;;;20.13;11.50;;;;;;;14.50;100.00;101449.13;5043466;28;20453;-85
2023/09/08 05:22:09;;;;;;;15.35;10.77;;;;;;;14.56;100.00;101439.75;5031225;28;20429;-86
2023/09/08 05:24:42;;;;;;;15.70;11.52;;;;;;;14.57;100.00;101438.66;5045237;28;20435;-86
2023/09/08 05:27:15;;;;;;;17.98;11.52;;;;;;;14.62;100.00;101444.13;5029786;28;20411;-84
2023/09/08 05:29:45;;;;;;;16.65;10.73;;;;;;;14.65;100.00;101445.44;5029142;28;20454;-84
2023/09/08 05:32:14;;;;;;;16.10;10.85;;;;;;;14.66;100.00;101438.84;5029637;28;20426;-86
2023/09/08 05:34:47;;;;;;;17.60;11.38;;;;;;;14.73;100.00;101427.56;5028380;28;20415;-86
2023/09/08 05:37:20;;;;;;;16.38;10.95;;;;;;;14.81;100.00;101431.59;5044738;28;20763;-87
2023/09/08 05:39:53;;;;;;;15.55;11.18;;;;;;;14.83;100.00;101430.22;5045142;28;20442;-86
2023/09/08 05:42:27;;;;;;;16.83;11.38;;;;;;;14.92;100.00;101433.13;5028148;28;20419;-86
2023/09/08 05:45:02;;;;;;;17.10;11.07;;;;;;;14.90;100.00;101433.41;5026277;28;20426;-85
2023/09/08 05:47:36;;;;;;;17.10;11.20;;;;;;;15.02;100.00;101423.97;5029490;28;20423;-85
2023/09/08 05:50:10;;;;;;;17.85;11.40;;;;;;;15.06;100.00;101425.81;5045132;28;20919;-86
2023/09/08 05:52:39;;;;;;;16.23;11.60;;;;;;;15.10;100.00;101423.31;5028258;28;20454;-86
2023/09/08 05:55:12;;;;;;;15.90;11.60;;;;;;;15.18;100.00;101414.47;5028816;28;21063;-86
2023/09/08 05:57:40;;;;;;;16.67;11.53;;;;;;;15.22;100.00;101425.63;5045266;28;20425;-86
2023/09/08 06:00:16;;;;;;;18.73;12.70;;;;;;;15.29;100.00;101418.69;5028883;28;20913;-84
2023/09/08 06:02:52;;;;;;;19.55;12.80;;;;;;;15.32;100.00;101425.53;5026933;28;20426;-87
2023/09/08 06:05:21;;;;;;;20.95;13.27;;;;;;;15.35;100.00;101415.91;5027928;28;20442;-86
2023/09/08 06:07:55;;;;;;;16.92;12.27;;;;;;;15.42;100.00;101414.41;5039773;28;20430;-85
2023/09/08 06:10:30;;;;;;;19.42;12.43;;;;;;;15.43;100.00;101420.72;5027973;28;20449;-86
2023/09/08 06:12:59;;;;;;;16.27;11.80;;;;;;;15.60;100.00;101420.22;5027753;28;20415;-85
2023/09/08 06:15:34;;;;;;;18.13;11.97;;;;;;;15.60;100.00;101415.53;5024883;28;20438;-84
2023/09/08 06:18:03;;;;;;;18.67;11.10;;;;;;;15.68;100.00;101416.00;5021846;28;20438;-86
2023/09/08 06:20:36;;;;;;;17.60;11.50;;;;;;;15.74;100.00;101412.06;5023218;28;20778;-88
2023/09/08 06:23:04;;;;;;;15.27;11.38;;;;;;;15.79;100.00;101418.31;5042327;28;20434;-86
2023/09/08 06:25:33;;;;;;;18.80;12.00;;;;;;;15.87;100.00;101413.25;5027007;28;20425;-86
2023/09/08 06:28:01;;;;;;;15.40;11.25;;;;;;;15.90;100.00;101413.50;5021068;28;20789;-83
2023/09/08 06:30:29;;;;;;;16.67;11.25;;;;;;;15.95;100.00;101412.59;5027283;28;20431;-84
2023/09/08 06:32:59;;;;;;;15.70;12.05;;;;;;;15.97;100.00;101413.13;5020385;28;20434;-85
2023/09/08 06:35:33;;;;;;;16.17;11.93;;;;;;;16.08;100.00;101414.59;5024010;28;20423;-89
2023/09/08 06:38:06;;;;;;;16.95;12.05;;;;;;;16.12;100.00;101406.59;5021473;28;20915;-87
2023/09/08 06:40:35;;;;;;;15.02;11.15;;;;;;;16.21;100.00;101421.22;5023397;28;20431;-87
2023/09/08 06:43:08;;;;;;;18.60;11.70;;;;;;;16.26;100.00;101415.66;5026089;28;20445;-85
2023/09/08 06:45:49;;;;;;;15.80;11.48;;;;;;;16.30;100.00;101402.97;5023124;28;20477;-87
2023/09/08 06:48:25;;;;;;;20.63;11.77;;;;;;;16.36;100.00;101414.69;5019150;28;20435;-86
2023/09/08 06:50:56;;;;;;;18.10;10.95;;;;;;;16.60;100.00;101411.78;5023889;28;20427;-84
2023/09/08 06:53:25;;;;;;;17.30;11.38;;;;;;;16.53;100.00;101410.53;5017327;28;20441;-86
2023/09/08 06:55:59;;;;;;;17.33;12.10;;;;;;;16.56;100.00;101410.75;5021879;28;20442;-86
2023/09/08 06:58:27;;;;;;;16.42;11.68;;;;;;;16.61;100.00;101413.44;5023024;28;20898;-86
2023/09/08 07:01:00;;;;;;;16.52;11.55;;;;;;;16.74;100.00;101422.00;5023831;28;20783;-86
2023/09/08 07:03:36;;;;;;;16.27;11.10;;;;;;;16.76;100.00;101414.25;5022282;28;20446;-83
2023/09/08 07:06:06;;;;;;;15.63;11.07;;;;;;;16.83;100.00;101410.00;5041333;28;20447;-87
2023/09/08 07:08:35;;;;;;;15.95;11.32;;;;;;;16.87;100.00;101417.63;5026109;28;21288;-88
2023/09/08 07:11:03;;;;;;;16.80;11.38;;;;;;;16.93;100.00;101417.25;5024715;28;20419;-85
2023/09/08 07:13:37;;;;;;;18.08;11.15;;;;;;;16.99;100.00;101410.53;5022924;28;20438;-87
2023/09/08 07:16:11;;;;;;;17.65;11.65;;;;;;;17.11;100.00;101411.94;4993084;28;20454;-85
2023/09/08 07:18:45;;;;;;;15.52;10.90;;;;;;;17.15;100.00;101416.53;4994193;28;20434;-85
2023/09/08 07:21:14;;;;;;;16.17;11.35;;;;;;;17.16;100.00;101411.84;4999189;28;20431;-84
2023/09/08 07:23:48;;;;;;;15.43;11.17;;;;;;;17.25;100.00;101415.50;4995195;28;20438;-84
2023/09/08 07:26:16;;;;;;;18.60;11.20;;;;;;;17.35;100.00;101417.22;4993854;28;20431;-84
2023/09/08 07:28:45;;;;;;;17.58;11.35;;;;;;;17.49;100.00;101411.69;4987759;28;20438;-86
2023/09/08 07:31:15;;;;;;;16.88;11.30;;;;;;;17.49;100.00;101417.19;4999226;28;20889;-84
2023/09/08 07:33:47;;;;;;;15.85;10.80;;;;;;;17.54;100.00;101422.59;4998633;28;20423;-85
2023/09/08 07:36:21;;;;;;;16.23;10.80;;;;;;;17.65;100.00;101423.19;4993025;28;21663;-84
2023/09/08 07:38:54;;;;;;;15.67;10.87;;;;;;;17.69;100.00;101418.69;4997638;28;20426;-88
2023/09/08 07:41:23;;;;;;;16.67;11.20;;;;;;;17.82;100.00;101425.28;4995343;28;20804;-85
2023/09/08 07:43:52;;;;;;;16.48;10.85;;;;;;;17.90;100.00;101423.69;5007224;28;20428;-87
2023/09/08 07:46:24;;;;;;;15.68;10.98;;;;;;;17.97;100.00;101413.13;5010825;28;21068;-85
2023/09/08 07:49:00;;;;;;;16.33;10.63;;;;;;;18.01;100.00;101419.63;4996705;28;20431;-87
2023/09/08 07:51:29;;;;;;;15.50;10.43;;;;;;;18.10;100.00;101417.72;4999073;28;20430;-88
2023/09/08 07:54:04;;;;;;;14.40;10.32;;;;;;;18.15;100.00;101420.38;5007939;28;20431;-86
2023/09/08 07:56:38;;;;;;;21.08;11.30;;;;;;;18.24;100.00;101423.19;5003428;28;20437;-86
2023/09/08 07:59:06;;;;;;;15.52;10.27;;;;;;;18.36;100.00;101417.09;5017947;28;20422;-87
2023/09/08 08:01:40;;;;;;;15.23;10.35;;;;;;;18.40;100.00;101420.84;4999194;28;20427;-87
2023/09/08 08:04:14;;;;;;;14.35;10.38;;;;;;;18.47;100.00;101425.94;5000678;28;20431;-85
2023/09/08 08:06:42;;;;;;;15.55;9.93;;;;;;;18.51;100.00;101415.91;5009871;28;20434;-85
2023/09/08 08:09:16;;;;;;;14.82;10.20;;;;;;;18.70;100.00;101410.97;5005019;28;20438;-85
2023/09/08 08:11:49;;;;;;;14.73;10.10;;;;;;;18.80;100.00;101417.34;5010626;28;20435;-86
2023/09/08 08:14:17;;;;;;;15.15;9.73;;;;;;;18.85;100.00;101409.75;5009513;28;20423;-87
2023/09/08 08:16:50;;;;;;;14.90;9.23;;;;;;;18.92;100.00;101402.97;4982658;28;20524;-87
2023/09/08 08:19:25;;;;;;;16.48;10.65;;;;;;;19.11;100.00;101403.53;5002841;28;20446;-86
2023/09/08 08:21:53;;;;;;;15.30;9.25;;;;;;;19.16;100.00;101403.38;5001948;28;20446;-84
2023/09/08 08:24:21;;;;;;;16.00;10.10;;;;;;;19.21;100.00;101394.16;5011982;28;20419;-87
2023/09/08 08:26:51;;;;;;;14.90;9.80;;;;;;;19.15;100.00;101389.91;5006619;28;20441;-88
2023/09/08 08:29:20;;;;;;;13.68;9.35;;;;;;;19.59;100.00;101385.25;5009687;28;20450;-87
2023/09/08 08:31:48;;;;;;;14.38;9.25;;;;;;;19.53;100.00;101394.84;5005965;28;20437;-86
2023/09/08 08:34:21;;;;;;;11.97;8.73;;;;;;;19.49;100.00;101388.34;5001791;28;20431;-85
2023/09/08 08:36:57;;;;;;;14.95;9.00;;;;;;;19.63;100.00;101390.94;5007290;28;20426;-85
2023/09/08 08:39:25;;;;;;;17.02;9.27;;;;;;;19.73;100.00;101393.38;5003923;28;20431;-85
2023/09/08 08:41:53;;;;;;;13.25;8.85;;;;;;;19.73;100.00;101392.56;5022528;28;20427;-87
2023/09/08 08:44:27;;;;;;;15.00;8.77;;;;;;;19.72;100.00;101391.78;5007022;28;20423;-85
2023/09/08 08:46:57;;;;;;;14.20;8.55;;;;;;;19.90;100.00;101383.50;5005103;28;21629;-85
2023/09/08 08:49:34;;;;;;;12.98;8.85;;;;;;;19.86;100.00;101386.91;5006807;28;20426;-86
2023/09/08 08:52:09;;;;;;;12.32;8.50;;;;;;;19.83;100.00;101395.03;4999017;28;20427;-85
2023/09/08 08:54:39;;;;;;;16.17;8.43;;;;;;;20.17;100.00;101390.63;5006469;28;20442;-85
2023/09/08 08:57:13;;;;;;;12.70;8.57;;;;;;;20.02;100.00;101387.25;5011701;28;20439;-87
2023/09/08 08:59:48;;;;;;;12.98;9.13;;;;;;;20.01;100.00;101384.78;5006092;28;20419;-86
2023/09/08 09:02:22;;;;;;;12.70;8.30;;;;;;;20.49;100.00;101380.13;4998661;28;20438;-85
2023/09/08 09:04:56;;;;;;;15.55;9.25;;;;;;;20.70;100.00;101383.81;5009870;28;20423;-86
2023/09/08 09:07:31;;;;;;;13.33;8.87;;;;;;;20.92;100.00;101381.13;5014405;28;20442;-87
2023/09/08 09:10:05;;;;;;;11.97;8.13;;;;;;;20.90;100.00;101381.44;5004000;28;20431;-84
2023/09/08 09:12:38;;;;;;;12.15;7.95;;;;;;;20.83;100.00;101378.41;5011347;28;20514;-88
2023/09/08 09:15:13;;;;;;;11.80;8.00;;;;;;;21.26;100.00;101380.09;4975107;28;20446;-83
2023/09/08 09:18:03;;;;;;;11.35;7.55;;;;;;;21.13;100.00;101381.97;4990982;28;20431;-83
2023/09/08 09:20:31;;;;;;;11.55;7.53;;;;;;;21.49;100.00;101377.81;4992583;28;20442;-86
2023/09/08 09:23:01;;;;;;;11.57;7.80;;;;;;;21.10;100.00;101387.34;4994298;28;20870;-85
2023/09/08 09:25:30;;;;;;;10.68;7.15;;;;;;;20.96;100.00;101373.78;5004050;28;20544;-87
2023/09/08 09:28:00;;;;;;;11.45;7.50;;;;;;;20.96;100.00;101377.34;5008176;28;20438;-84
2023/09/08 09:30:51;;;;;;;11.80;7.82;;;;;;;21.78;100.00;101380.88;5005480;28;20438;-86
2023/09/08 09:33:24;;;;;;;12.80;7.15;;;;;;;21.54;100.00;101379.59;5003541;28;20435;-85
2023/09/08 09:35:58;;;;;;;11.68;7.05;;;;;;;21.40;100.00;101380.66;5014767;28;20442;-87
2023/09/08 09:38:28;;;;;;;11.45;7.13;;;;;;;21.46;100.00;101377.69;5007216;28;20434;-86
2023/09/08 09:41:01;;;;;;;11.10;6.80;;;;;;;21.70;100.00;101371.50;5001761;28;20435;-85
2023/09/08 09:43:30;;;;;;;14.25;7.55;;;;;;;21.51;100.00;101371.94;5001042;28;20439;-85
2023/09/08 09:46:03;;;;;;;13.15;7.30;;;;;;;21.39;100.00;101378.22;4997572;28;20493;-87
2023/09/08 09:48:32;;;;;;;11.98;6.90;;;;;;;21.44;100.00;101369.72;5003898;28;21172;-84
2023/09/08 09:51:18;;;;;;;19.67;11.87;;;;;;;22.22;100.00;101368.22;5005329;28;20430;-84
2023/09/08 09:53:48;;;;;;;14.68;7.13;;;;;;;21.79;100.00;101358.34;5001954;28;21465;-86
2023/09/08 09:56:18;;;;;;;10.90;6.70;;;;;;;21.77;100.00;101362.66;5004509;28;21333;-85
2023/09/08 09:58:47;;;;;;;9.77;6.60;;;;;;;21.88;100.00;101363.84;5006375;28;20475;-85
2023/09/08 10:01:17;;;;;;;11.45;6.80;;;;;;;22.12;100.00;101367.84;5002314;28;20458;-84
2023/09/08 10:03:46;;;;;;;12.38;6.60;;;;;;;22.24;100.00;101376.19;4998454;28;20446;-84
2023/09/08 10:06:15;;;;;;;12.07;7.03;;;;;;;22.37;100.00;101366.78;5003441;28;20450;-85
2023/09/08 10:08:48;;;;;;;10.93;6.82;;;;;;;22.91;100.00;101360.22;5008660;28;20443;-83
2023/09/08 10:11:22;;;;;;;11.60;6.30;;;;;;;22.56;100.00;101366.22;5000420;28;20431;-85
2023/09/08 10:13:59;;;;;;;11.65;6.90;;;;;;;22.27;100.00;101366.38;5010298;28;20454;-86
2023/09/08 10:16:29;;;;;;;11.02;7.28;;;;;;;22.26;100.00;101362.78;4971192;28;20443;-86
2023/09/08 10:19:08;;;;;;;9.85;6.32;;;;;;;22.39;100.00;101364.47;5000359;28;20419;-85
2023/09/08 10:21:42;;;;;;;13.57;7.00;;;;;;;22.89;100.00;101361.72;4998599;28;20438;-84
2023/09/08 10:24:23;;;;;;;10.35;6.60;;;;;;;23.08;100.00;101353.59;5004919;28;20437;-84
2023/09/08 10:26:59;;;;;;;11.73;6.88;;;;;;;22.91;100.00;101354.69;5005742;28;20500;-84
2023/09/08 10:29:27;;;;;;;9.68;6.38;;;;;;;22.95;100.00;101346.44;4995021;28;20431;-86
2023/09/08 10:31:57;;;;;;;10.70;6.30;;;;;;;23.12;100.00;101347.34;4999836;28;20454;-85
2023/09/08 10:34:32;;;;;;;10.20;6.70;;;;;;;23.37;100.00;101340.63;5001422;28;20438;-84
2023/09/08 10:37:00;;;;;;;10.80;6.65;;;;;;;23.17;100.00;101339.63;4999286;28;20435;-86
2023/09/08 10:39:32;;;;;;;11.63;6.32;;;;;;;23.15;100.00;101332.81;5004701;28;20427;-84
2023/09/08 10:42:24;;;;;;;12.38;6.32;;;;;;;23.06;100.00;101332.91;4998663;28;20437;-85
2023/09/08 10:45:01;;;;;;;10.95;6.60;;;;;;;23.22;100.00;101333.03;4998016;28;20447;-85
2023/09/08 10:47:34;;;;;;;9.32;6.07;;;;;;;23.03;100.00;101328.84;5000201;28;21206;-85
2023/09/08 10:50:08;;;;;;;10.57;6.38;;;;;;;22.88;100.00;101332.34;5005451;28;21093;-86
2023/09/08 10:52:36;;;;;;;11.30;6.23;;;;;;;23.30;100.00;101334.03;5019391;28;20445;-85
2023/09/08 10:55:12;;;;;;;9.60;6.00;;;;;;;23.71;100.00;101332.88;5003666;28;20438;-85
2023/09/08 10:57:46;;;;;;;9.65;6.30;;;;;;;23.41;100.00;101337.97;5001640;28;20446;-87
2023/09/08 11:00:20;;;;;;;10.55;5.85;;;;;;;23.59;100.00;101328.16;5004510;28;20431;-85
2023/09/08 11:02:54;;;;;;;11.38;5.80;;;;;;;23.49;100.00;101323.13;5005260;28;21202;-87
2023/09/08 11:05:23;;;;;;;9.90;5.85;;;;;;;23.72;100.00;101328.09;5011907;28;20426;-87
2023/09/08 11:07:52;;;;;;;8.90;5.60;;;;;;;23.68;100.00;101322.44;5003082;28;20439;-86
2023/09/08 11:10:28;;;;;;;9.23;5.68;;;;;;;23.75;100.00;101324.63;5000014;28;20442;-84
2023/09/08 11:12:56;;;;;;;8.80;5.40;;;;;;;23.74;100.00;101320.25;5002134;28;22038;-85
2023/09/08 11:15:25;;;;;;;9.98;5.10;;;;;;;23.91;100.00;101319.94;4991974;28;20441;-90
2023/09/08 11:17:58;;;;;;;8.30;5.30;;;;;;;24.08;100.00;101316.00;5003759;28;20435;-87
2023/09/08 11:20:31;;;;;;;9.07;5.50;;;;;;;24.10;100.00;101316.47;5021074;28;20424;-87
2023/09/08 11:23:00;;;;;;;12.10;5.63;;;;;;;24.21;100.00;101316.75;5021978;28;20438;-88
2023/09/08 11:25:35;;;;;;;10.95;5.28;;;;;;;24.23;100.00;101311.63;4998698;28;20439;-87
2023/09/08 11:28:04;;;;;;;9.95;5.45;;;;;;;24.13;100.00;101312.16;4997909;28;20451;-83
2023/09/08 11:30:37;;;;;;;11.43;6.33;;;;;;;24.09;100.00;101306.50;5020260;28;20434;-87